createdAt,value
2022-08-20T00:02:15.036Z,97272.15
2022-08-20T00:04:43.048Z,97266.23
2022-08-20T00:07:12.011Z,97261.85
2022-08-20T00:09:41.591Z,97261.05
2022-08-20T00:12:10.718Z,97262.58
2022-08-20T00:14:39.443Z,97266.73
2022-08-20T00:17:07.398Z,97271.83
2022-08-20T00:19:35.201Z,97271.86
2022-08-20T00:22:03.017Z,97268.16
2022-08-20T00:24:30.744Z,97269.16
2022-08-20T00:26:58.459Z,97268.97
2022-08-20T00:29:26.601Z,97268.58
2022-08-20T00:31:54.307Z,97268.23
2022-08-20T00:34:22.488Z,97267.98
2022-08-20T00:36:50.335Z,97262.76
2022-08-20T00:39:18.193Z,97261.84
2022-08-20T00:41:46.114Z,97261.04
2022-08-20T00:44:19.528Z,97258.23
2022-08-20T00:46:47.270Z,97257.16
2022-08-20T00:49:24.980Z,97256.17
2022-08-20T00:52:02.932Z,97255.17
2022-08-20T00:54:39.324Z,97250.94
2022-08-20T00:57:21.048Z,97246.52
2022-08-20T00:59:50.444Z,97240.95
2022-08-20T01:02:20.087Z,97239.02
2022-08-20T01:05:05.696Z,97232.88
2022-08-20T01:07:35.188Z,97230.23
2022-08-20T01:10:12.194Z,97228.80
2022-08-20T01:12:43.550Z,97231.81
2022-08-20T01:15:17.152Z,97231.63
2022-08-20T01:17:49.730Z,97235.94
2022-08-20T01:20:22.787Z,97240.70
2022-08-20T01:23:20.160Z,97241.83
2022-08-20T01:26:09.277Z,97238.38
2022-08-20T01:28:43.776Z,97231.11
2022-08-20T01:31:15.422Z,97222.97
2022-08-20T01:33:46.063Z,97217.25
2022-08-20T01:36:16.338Z,97216.05
2022-08-20T01:38:50.207Z,97214.71
2022-08-20T01:41:28.359Z,97218.89
2022-08-20T01:43:58.402Z,97219.89
2022-08-20T01:46:29.528Z,97226.05
2022-08-20T01:48:57.682Z,97226.20
2022-08-20T01:51:29.087Z,97222.68
2022-08-20T01:53:59.933Z,97220.23
2022-08-20T01:56:30.556Z,97213.93
2022-08-20T01:59:05.481Z,97214.70
2022-08-20T02:01:46.254Z,97213.91
2022-08-20T02:04:17.092Z,97216.80
2022-08-20T02:06:56.555Z,97216.45
2022-08-20T02:09:30.343Z,97215.01
2022-08-20T02:11:58.934Z,97219.95
2022-08-20T02:14:27.656Z,97228.22
2022-08-20T02:16:58.480Z,97232.78
2022-08-20T02:19:31.829Z,97232.96
2022-08-20T02:22:04.678Z,97221.72
2022-08-20T02:24:32.828Z,97210.98
2022-08-20T02:27:01.297Z,97210.52
2022-08-20T02:29:29.509Z,97206.19
2022-08-20T02:32:24.773Z,97205.40
2022-08-20T02:34:46.028Z,97200.80
2022-08-20T02:37:16.476Z,97195.80
2022-08-20T02:39:45.833Z,97196.39
2022-08-20T02:42:14.475Z,97199.74
2022-08-20T02:44:42.838Z,97193.53
2022-08-20T02:47:10.532Z,97189.45
2022-08-20T02:49:38.321Z,97182.59
2022-08-20T02:52:06.107Z,97179.53
2022-08-20T02:54:33.789Z,97174.81
2022-08-20T02:57:02.479Z,97172.63
2022-08-20T02:59:30.294Z,97174.60
2022-08-20T03:02:00.759Z,97179.30
2022-08-20T03:04:30.444Z,97181.48
2022-08-20T03:06:59.775Z,97178.63
2022-08-20T03:09:27.733Z,97180.34
2022-08-20T03:11:55.605Z,97185.90
2022-08-20T03:14:23.607Z,97190.45
2022-08-20T03:16:52.059Z,97193.90
2022-08-20T03:19:20.170Z,97199.95
2022-08-20T03:21:47.881Z,97198.76
2022-08-20T03:24:16.168Z,97194.41
2022-08-20T03:26:44.234Z,97187.00
2022-08-20T03:29:12.868Z,97185.30
2022-08-20T03:31:40.994Z,97188.06
2022-08-20T03:34:08.806Z,97197.38
2022-08-20T03:36:36.589Z,97202.22
2022-08-20T03:39:06.636Z,97199.46
2022-08-20T03:41:34.358Z,97200.45
2022-08-20T03:44:02.220Z,97201.23
2022-08-20T03:46:30.141Z,97196.73
2022-08-20T03:49:00.562Z,97194.05
2022-08-20T03:51:30.453Z,97189.97
2022-08-20T03:53:59.103Z,97188.50
2022-08-20T03:56:27.609Z,97180.69
2022-08-20T03:58:55.979Z,97179.74
2022-08-20T04:01:44.858Z,97185.58
2022-08-20T04:04:12.051Z,97188.61
2022-08-20T04:06:42.423Z,97190.55
2022-08-20T04:09:12.118Z,97185.59
2022-08-20T04:11:41.299Z,97184.73
2022-08-20T04:14:11.073Z,97186.25
2022-08-20T04:16:40.512Z,97189.15
2022-08-20T04:19:08.764Z,97189.58
2022-08-20T04:21:37.206Z,97192.30
2022-08-20T04:24:06.184Z,97193.50
2022-08-20T04:26:36.485Z,97191.80
2022-08-20T04:29:04.647Z,97190.67
2022-08-20T04:31:35.458Z,97190.83
2022-08-20T04:34:05.080Z,97190.88
2022-08-20T04:36:32.841Z,97186.08
2022-08-20T04:39:01.200Z,97187.00
2022-08-20T04:41:29.116Z,97188.85
2022-08-20T04:43:58.381Z,97190.66
2022-08-20T04:46:28.608Z,97190.98
2022-08-20T04:48:57.794Z,97198.70
2022-08-20T04:51:25.572Z,97199.06
2022-08-20T04:53:56.388Z,97199.61
2022-08-20T04:56:29.846Z,97198.61
2022-08-20T04:59:00.377Z,97198.36
2022-08-20T05:01:29.489Z,97197.98
2022-08-20T05:03:58.393Z,97195.96
2022-08-20T05:06:30.496Z,97192.02
2022-08-20T05:09:00.222Z,97187.67
2022-08-20T05:11:34.620Z,97186.36
2022-08-20T05:14:08.911Z,97186.66
2022-08-20T05:16:38.479Z,97188.18
2022-08-20T05:19:09.955Z,97184.85
2022-08-20T05:21:38.434Z,97182.20
2022-08-20T05:24:06.831Z,97183.65
2022-08-20T05:26:34.782Z,97184.46
2022-08-20T05:29:05.439Z,97181.37
2022-08-20T05:31:34.774Z,97184.81
2022-08-20T05:34:11.137Z,97184.67
2022-08-20T05:36:48.093Z,97186.23
2022-08-20T05:39:19.227Z,97191.62
2022-08-20T05:41:50.089Z,97194.61
2022-08-20T05:44:19.103Z,97195.83
2022-08-20T05:46:47.837Z,97198.23
2022-08-20T05:49:20.194Z,97196.81
2022-08-20T05:51:49.602Z,97194.06
2022-08-20T05:54:17.385Z,97193.04
2022-08-20T05:56:45.077Z,97192.56
2022-08-20T05:59:14.045Z,97192.79
2022-08-20T06:01:42.933Z,97187.42
2022-08-20T06:04:32.001Z,97185.67
2022-08-20T06:07:05.880Z,97182.66
2022-08-20T06:09:35.086Z,97182.71
2022-08-20T06:12:06.287Z,97179.02
2022-08-20T06:14:35.077Z,97176.78
2022-08-20T06:17:09.444Z,97178.38
2022-08-20T06:19:38.631Z,97176.54
2022-08-20T06:22:18.145Z,97172.45
2022-08-20T06:24:48.953Z,97171.05
2022-08-20T06:27:16.979Z,97172.77
2022-08-20T06:29:44.746Z,97171.25
2022-08-20T06:32:12.562Z,97167.45
2022-08-20T06:34:50.928Z,97165.08
2022-08-20T06:37:30.787Z,97162.27
2022-08-20T06:40:10.833Z,97156.82
2022-08-20T06:42:47.788Z,97155.57
2022-08-20T06:45:25.537Z,97153.73
2022-08-20T06:47:55.976Z,97151.67
2022-08-20T06:50:30.142Z,97149.27
2022-08-20T06:52:58.685Z,97147.88
2022-08-20T06:55:26.958Z,97150.22
2022-08-20T06:58:05.854Z,97149.67
2022-08-20T07:00:35.789Z,97147.02
2022-08-20T07:03:04.332Z,97148.70
2022-08-20T07:05:35.720Z,97143.55
2022-08-20T07:08:04.552Z,97143.59
2022-08-20T07:10:32.439Z,97142.23
2022-08-20T07:13:00.492Z,97136.27
2022-08-20T07:15:28.833Z,97129.55
2022-08-20T07:18:01.394Z,97128.25
2022-08-20T07:20:34.701Z,97122.02
2022-08-20T07:23:02.681Z,97123.97
2022-08-20T07:25:33.644Z,97122.98
2022-08-20T07:28:07.909Z,97125.24
2022-08-20T07:30:56.821Z,97132.86
2022-08-20T07:33:30.938Z,97136.80
2022-08-20T07:36:00.404Z,97138.11
2022-08-20T07:38:30.150Z,97138.89
2022-08-20T07:41:04.346Z,97134.19
2022-08-20T07:43:33.268Z,97134.98
2022-08-20T07:46:07.476Z,97137.11
2022-08-20T07:48:41.948Z,97137.42
2022-08-20T07:51:11.073Z,97140.77
2022-08-20T07:53:40.560Z,97139.64
2022-08-20T07:56:11.658Z,97140.66
2022-08-20T07:58:52.973Z,97142.90
2022-08-20T08:01:25.765Z,97143.27
2022-08-20T08:03:53.847Z,97142.34
2022-08-20T08:06:29.939Z,97140.54
2022-08-20T08:09:04.021Z,97134.23
2022-08-20T08:11:33.813Z,97135.73
2022-08-20T08:14:03.144Z,97137.19
2022-08-20T08:16:32.553Z,97132.85
2022-08-20T08:19:02.178Z,97131.48
2022-08-20T08:21:31.015Z,97125.59
2022-08-20T08:23:58.918Z,97126.97
2022-08-20T08:26:29.144Z,97122.34
2022-08-20T08:28:58.418Z,97123.63
2022-08-20T08:31:26.964Z,97127.77
2022-08-20T08:33:55.679Z,97129.55
2022-08-20T08:36:26.979Z,97126.29
2022-08-20T08:38:56.747Z,97127.23
2022-08-20T08:41:32.753Z,97126.93
2022-08-20T08:44:13.102Z,97126.92
2022-08-20T08:46:49.080Z,97123.04
2022-08-20T08:49:22.597Z,97119.72
2022-08-20T08:51:56.698Z,97123.55
2022-08-20T08:54:29.339Z,97120.31
2022-08-20T08:56:59.544Z,97123.13
2022-08-20T08:59:52.226Z,97119.29
2022-08-20T09:02:21.705Z,97115.20
2022-08-20T09:04:51.651Z,97120.14
2022-08-20T09:07:20.501Z,97121.77
2022-08-20T09:09:48.233Z,97120.29
2022-08-20T09:12:19.401Z,97113.20
2022-08-20T09:14:48.777Z,97109.98
2022-08-20T09:17:19.149Z,97106.29
2022-08-20T09:19:47.404Z,97104.50
2022-08-20T09:22:17.874Z,97100.99
2022-08-20T09:24:45.803Z,97098.56
2022-08-20T09:27:14.138Z,97092.50
2022-08-20T09:29:41.858Z,97092.21
2022-08-20T09:32:17.899Z,97089.10
2022-08-20T09:34:49.078Z,97079.70
2022-08-20T09:37:18.344Z,97076.46
2022-08-20T09:39:46.229Z,97069.45
2022-08-20T09:42:18.519Z,97062.94
2022-08-20T09:44:46.451Z,97068.17
2022-08-20T09:47:14.811Z,97067.09
2022-08-20T09:49:42.597Z,97071.34
2022-08-20T09:52:13.270Z,97073.70
2022-08-20T09:54:44.569Z,97075.56
2022-08-20T09:57:15.718Z,97070.67
2022-08-20T09:59:44.150Z,97072.25
2022-08-20T10:02:11.962Z,97068.95
2022-08-20T10:04:39.695Z,97069.85
2022-08-20T10:07:09.436Z,97073.38
2022-08-20T10:09:38.636Z,97070.17
2022-08-20T10:12:08.306Z,97073.34
2022-08-20T10:14:36.103Z,97075.64
2022-08-20T10:17:03.949Z,97074.60
2022-08-20T10:19:32.310Z,97070.60
2022-08-20T10:22:00.443Z,97068.16
2022-08-20T10:24:29.666Z,97061.58
2022-08-20T10:26:58.988Z,97061.95
2022-08-20T10:29:27.872Z,97059.42
2022-08-20T10:31:57.153Z,97059.84
2022-08-20T10:34:25.630Z,97057.98
2022-08-20T10:36:53.645Z,97055.34
2022-08-20T10:39:21.568Z,97059.83
2022-08-20T10:41:49.266Z,97060.39
2022-08-20T10:44:17.808Z,97055.74
2022-08-20T10:46:45.887Z,97048.56
2022-08-20T10:49:13.741Z,97046.15
2022-08-20T10:51:41.645Z,97046.22
2022-08-20T10:54:12.561Z,97050.98
2022-08-20T10:56:40.729Z,97053.08
2022-08-20T10:59:08.705Z,97049.77
2022-08-20T11:01:36.942Z,97045.35
2022-08-20T11:04:05.240Z,97042.43
2022-08-20T11:06:33.199Z,97041.88
2022-08-20T11:09:00.988Z,97035.64
2022-08-20T11:11:28.844Z,97027.05
2022-08-20T11:13:56.567Z,97021.63
2022-08-20T11:16:25.682Z,97015.45
2022-08-20T11:18:53.575Z,97015.20
2022-08-20T11:21:21.285Z,97010.77
2022-08-20T11:23:48.975Z,97007.36
2022-08-20T11:26:22.734Z,97006.11
2022-08-20T11:28:50.687Z,97003.01
2022-08-20T11:31:18.527Z,96993.38
2022-08-20T11:33:46.492Z,96984.05
2022-08-20T11:36:14.222Z,96984.28
2022-08-20T11:38:42.226Z,96979.20
2022-08-20T11:41:10.106Z,96980.02
2022-08-20T11:43:38.710Z,96973.95
2022-08-20T11:46:06.642Z,96967.08
2022-08-20T11:48:34.350Z,96966.84
2022-08-20T11:51:02.292Z,96968.63
2022-08-20T11:53:31.061Z,96963.17
2022-08-20T11:56:00.253Z,96960.05
2022-08-20T11:58:28.539Z,96956.66
2022-08-20T12:00:56.411Z,96954.77
2022-08-20T12:03:24.274Z,96952.67
2022-08-20T12:05:52.173Z,96955.10
2022-08-20T12:08:27.239Z,96955.73
2022-08-20T12:10:58.828Z,96958.55
2022-08-20T12:13:30.678Z,96954.20
2022-08-20T12:16:16.048Z,96947.53
2022-08-20T12:18:44.500Z,96946.73
2022-08-20T12:21:12.227Z,96951.01
2022-08-20T12:23:40.188Z,96953.14
2022-08-20T12:26:07.984Z,96953.75
2022-08-20T12:28:35.820Z,96953.53
2022-08-20T12:31:05.033Z,96952.86
2022-08-20T12:33:32.852Z,96952.25
2022-08-20T12:36:00.756Z,96947.83
2022-08-20T12:38:29.124Z,96947.74
2022-08-20T12:40:57.341Z,96943.75
2022-08-20T12:43:26.214Z,96948.19
2022-08-20T12:45:54.831Z,96952.14
2022-08-20T12:48:22.725Z,96959.73
2022-08-20T12:50:51.088Z,96966.84
2022-08-20T12:53:19.509Z,96976.05
2022-08-20T12:55:47.988Z,96979.89
2022-08-20T12:58:15.754Z,96986.52
2022-08-20T13:00:48.529Z,96992.63
2022-08-20T13:03:20.454Z,96991.77
2022-08-20T13:05:48.986Z,96990.27
2022-08-20T13:08:19.363Z,96989.79
2022-08-20T13:10:48.385Z,96987.12
2022-08-20T13:13:20.368Z,96987.95
2022-08-20T13:15:50.225Z,96992.75
2022-08-20T13:18:18.787Z,96995.17
2022-08-20T13:20:47.035Z,96994.42
2022-08-20T13:23:15.373Z,96991.67
2022-08-20T13:25:43.184Z,96985.67
2022-08-20T13:28:11.529Z,96983.93
2022-08-20T13:30:41.067Z,96991.77
2022-08-20T13:33:09.498Z,96999.78
2022-08-20T13:35:38.456Z,97009.39
2022-08-20T13:38:06.633Z,97012.81
2022-08-20T13:40:34.637Z,97013.70
2022-08-20T13:43:06.851Z,97015.02
2022-08-20T13:45:36.897Z,97022.66
2022-08-20T13:48:07.540Z,97044.47
2022-08-20T13:50:42.855Z,97064.65
2022-08-20T13:53:10.707Z,97093.55
2022-08-20T13:55:39.174Z,97083.94
2022-08-20T13:58:08.006Z,97077.88
2022-08-20T14:00:36.615Z,97079.45
2022-08-20T14:03:06.453Z,97081.29
2022-08-20T14:05:35.233Z,97091.20
2022-08-20T14:08:12.230Z,97093.70
2022-08-20T14:10:42.555Z,97113.71
2022-08-20T14:13:15.303Z,97116.22
2022-08-20T14:15:44.997Z,97125.01
2022-08-20T14:18:14.718Z,97124.91
2022-08-20T14:20:45.518Z,97125.96
2022-08-20T14:23:15.028Z,97142.10
2022-08-20T14:25:45.989Z,97141.14
2022-08-20T14:28:18.095Z,97143.05
2022-08-20T14:30:52.933Z,97143.26
2022-08-20T14:33:23.404Z,97149.30
2022-08-20T14:35:52.284Z,97153.28
2022-08-20T14:38:20.310Z,97142.21
2022-08-20T14:40:48.711Z,97143.92
2022-08-20T14:43:17.030Z,97135.51
2022-08-20T14:45:44.818Z,97129.54
2022-08-20T14:48:14.982Z,97131.89
2022-08-20T14:50:43.178Z,97129.45
2022-08-20T14:53:10.894Z,97128.48
2022-08-20T14:55:38.887Z,97123.75
2022-08-20T14:58:09.132Z,97122.30
2022-08-20T15:00:37.311Z,97122.75
2022-08-20T15:03:05.252Z,97123.65
2022-08-20T15:05:33.649Z,97131.43
2022-08-20T15:08:01.497Z,97127.67
2022-08-20T15:10:32.809Z,97135.10
2022-08-20T15:13:00.802Z,97138.89
2022-08-20T15:15:28.897Z,97141.63
2022-08-20T15:18:00.653Z,97145.71
2022-08-20T15:20:31.177Z,97144.20
2022-08-20T15:22:59.218Z,97156.44
2022-08-20T15:25:36.665Z,97152.16
2022-08-20T15:28:08.261Z,97155.55
2022-08-20T15:30:38.285Z,97147.31
2022-08-20T15:33:06.769Z,97149.42
2022-08-20T15:35:34.655Z,97147.63
2022-08-20T15:38:02.548Z,97142.46
2022-08-20T15:40:31.897Z,97143.90
2022-08-20T15:43:02.623Z,97153.70
2022-08-20T15:45:31.234Z,97145.95
2022-08-20T15:48:13.065Z,97144.66
2022-08-20T15:51:09.734Z,97143.31
2022-08-20T15:53:48.538Z,97140.39
2022-08-20T15:56:34.084Z,97132.71
2022-08-20T15:59:01.763Z,97123.13
2022-08-20T16:02:23.757Z,97119.48
2022-08-20T16:05:08.507Z,97108.20
2022-08-20T16:07:48.089Z,97109.48
2022-08-20T16:10:22.135Z,97105.30
2022-08-20T16:12:52.958Z,97099.08
2022-08-20T16:15:25.121Z,97099.17
2022-08-20T16:18:00.575Z,97089.09
2022-08-20T16:20:40.498Z,97083.83
2022-08-20T16:23:11.028Z,97080.38
2022-08-20T16:26:17.706Z,97082.61
2022-08-20T16:28:51.514Z,97076.71
2022-08-20T16:31:22.849Z,97073.45
2022-08-20T16:34:23.431Z,97075.84
2022-08-20T16:37:21.593Z,97074.73
2022-08-20T16:40:00.472Z,97068.16
2022-08-20T16:42:33.842Z,97071.70
2022-08-20T16:45:03.729Z,97065.73
2022-08-20T16:47:34.999Z,97060.78
2022-08-20T16:50:24.087Z,97071.52
2022-08-20T16:52:52.805Z,97079.48
2022-08-20T16:55:23.755Z,97102.80
2022-08-20T16:57:53.206Z,97129.05
2022-08-20T17:00:35.456Z,97134.30
2022-08-20T17:03:09.414Z,97138.14
2022-08-20T17:06:01.845Z,97137.81
2022-08-20T17:08:35.007Z,97146.54
2022-08-20T17:11:17.343Z,97150.07
2022-08-20T17:13:47.412Z,97158.67
2022-08-20T17:16:15.101Z,97168.98
2022-08-20T17:18:47.013Z,97174.17
2022-08-20T17:21:23.546Z,97173.80
2022-08-20T17:23:59.510Z,97182.94
2022-08-20T17:26:30.919Z,97185.86
2022-08-20T17:29:01.392Z,97189.08
2022-08-20T17:31:39.236Z,97196.71
2022-08-20T17:34:18.788Z,97194.66
2022-08-20T17:36:58.248Z,97193.83
2022-08-20T17:39:28.757Z,97188.10
2022-08-20T17:42:09.732Z,97189.27
2022-08-20T17:44:43.777Z,97188.54
2022-08-20T17:47:16.631Z,97196.50
2022-08-20T17:50:13.785Z,97197.64
2022-08-20T17:52:52.249Z,97193.85
2022-08-20T17:55:21.107Z,97192.48
2022-08-20T17:57:53.361Z,97198.50
2022-08-20T18:00:28.438Z,97201.98
2022-08-20T18:03:02.816Z,97206.20
2022-08-20T18:05:35.158Z,97210.45
2022-08-20T18:08:16.300Z,97208.69
2022-08-20T18:11:25.599Z,97206.30
2022-08-20T18:14:32.418Z,97204.84
2022-08-20T18:17:30.242Z,97205.29
2022-08-20T18:20:11.373Z,97207.46
2022-08-20T18:22:59.805Z,97208.45
2022-08-20T18:25:54.245Z,97210.63
2022-08-20T18:28:26.795Z,97211.31
2022-08-20T18:31:00.694Z,97213.09
2022-08-20T18:33:35.900Z,97214.95
2022-08-20T18:36:14.873Z,97215.81
2022-08-20T18:38:42.690Z,97213.54
2022-08-20T18:41:15.080Z,97207.20
2022-08-20T18:43:43.864Z,97206.58
2022-08-20T18:46:24.109Z,97209.80
2022-08-20T18:48:58.407Z,97201.75
2022-08-20T18:51:49.873Z,97193.59
2022-08-20T18:54:32.503Z,97190.15
2022-08-20T18:57:07.440Z,97193.80
2022-08-20T18:59:42.115Z,97190.67
2022-08-20T19:02:23.802Z,97189.06
2022-08-20T19:05:02.287Z,97181.13
2022-08-20T19:07:48.505Z,97176.94
2022-08-20T19:10:38.814Z,97177.38
2022-08-20T19:13:46.165Z,97174.66
2022-08-20T19:16:21.901Z,97167.85
2022-08-20T19:18:53.104Z,97164.88
2022-08-20T19:21:26.338Z,97158.64
2022-08-20T19:23:56.516Z,97153.27
2022-08-20T19:26:28.273Z,97149.52
2022-08-20T19:29:03.388Z,97154.25
2022-08-20T19:31:33.440Z,97158.35
2022-08-20T19:34:21.714Z,97158.39
2022-08-20T19:37:10.129Z,97157.99
2022-08-20T19:39:51.525Z,97153.74
2022-08-20T19:42:28.528Z,97154.85
2022-08-20T19:45:23.945Z,97154.13
2022-08-20T19:48:29.361Z,97155.05
2022-08-20T19:51:14.366Z,97156.02
2022-08-20T19:53:47.350Z,97158.80
2022-08-20T19:56:19.805Z,97161.42
2022-08-20T19:59:09.048Z,97159.89
2022-08-20T20:01:37.624Z,97160.77
2022-08-20T20:04:18.265Z,97158.10
2022-08-20T20:06:48.401Z,97160.05
2022-08-20T20:09:27.860Z,97156.47
2022-08-20T20:12:11.338Z,97157.48
2022-08-20T20:14:52.630Z,97156.84
2022-08-20T20:17:27.517Z,97151.33
2022-08-20T20:20:00.899Z,97151.43
2022-08-20T20:22:33.005Z,97151.51
2022-08-20T20:25:35.239Z,97153.68
2022-08-20T20:28:22.218Z,97146.63
2022-08-20T20:30:50.776Z,97135.67
2022-08-20T20:33:24.487Z,97129.83
2022-08-20T20:36:07.532Z,97130.83
2022-08-20T20:38:38.093Z,97132.86
2022-08-20T20:41:06.901Z,97130.47
2022-08-20T20:43:40.834Z,97127.02
2022-08-20T20:46:18.349Z,97127.73
2022-08-20T20:48:49.803Z,97126.19
2022-08-20T20:51:25.806Z,97132.17
2022-08-20T20:53:55.217Z,97140.38
2022-08-20T20:56:29.550Z,97146.23
2022-08-20T20:59:00.316Z,97147.68
2022-08-20T21:01:48.464Z,97151.20
2022-08-20T21:04:23.256Z,97150.75
2022-08-20T21:06:53.790Z,97158.06
2022-08-20T21:09:24.562Z,97163.48
2022-08-20T21:11:52.293Z,97163.50
2022-08-20T21:14:20.055Z,97162.90
2022-08-20T21:16:48.605Z,97154.64
2022-08-20T21:19:17.879Z,97152.38
2022-08-20T21:21:45.867Z,97149.41
2022-08-20T21:24:13.628Z,97150.92
2022-08-20T21:26:41.879Z,97151.41
2022-08-20T21:29:11.897Z,97149.32
2022-08-20T21:31:45.116Z,97149.30
2022-08-20T21:34:15.462Z,97149.36
2022-08-20T21:36:43.882Z,97148.85
2022-08-20T21:39:12.325Z,97147.88
2022-08-20T21:41:42.749Z,97143.62
2022-08-20T21:44:25.751Z,97140.60
2022-08-20T21:46:55.175Z,97138.90
2022-08-20T21:49:24.016Z,97144.15
2022-08-20T21:51:53.002Z,97144.10
2022-08-20T21:54:21.746Z,97138.10
2022-08-20T21:56:56.864Z,97133.55
2022-08-20T21:59:25.562Z,97131.45
2022-08-20T22:01:54.131Z,97128.33
2022-08-20T22:04:21.845Z,97123.56
2022-08-20T22:06:50.182Z,97120.23
2022-08-20T22:09:19.586Z,97116.66
2022-08-20T22:11:53.444Z,97114.13
2022-08-20T22:14:22.701Z,97116.91
2022-08-20T22:16:50.789Z,97121.54
2022-08-20T22:19:18.732Z,97118.67
2022-08-20T22:21:47.130Z,97115.92
2022-08-20T22:24:15.380Z,97113.98
2022-08-20T22:26:43.823Z,97111.34
2022-08-20T22:29:12.935Z,97111.50
2022-08-20T22:31:43.054Z,97107.15
2022-08-20T22:34:12.838Z,97104.52
2022-08-20T22:36:41.059Z,97102.96
2022-08-20T22:39:09.296Z,97099.07
2022-08-20T22:41:38.026Z,97100.23
2022-08-20T22:44:06.658Z,97098.47
2022-08-20T22:46:38.060Z,97097.32
2022-08-20T22:49:09.510Z,97099.84
2022-08-20T22:51:38.708Z,97104.67
2022-08-20T22:54:10.506Z,97098.35
2022-08-20T22:56:38.901Z,97095.83
2022-08-20T22:59:08.582Z,97086.66
2022-08-20T23:01:37.378Z,97080.48
2022-08-20T23:04:12.637Z,97076.23
2022-08-20T23:06:40.853Z,97077.77
2022-08-20T23:09:09.039Z,97077.58
2022-08-20T23:11:40.865Z,97077.87
2022-08-20T23:14:08.613Z,97072.09
2022-08-20T23:16:39.076Z,97069.66
2022-08-20T23:19:07.384Z,97062.17
2022-08-20T23:21:35.159Z,97068.98
2022-08-20T23:24:03.002Z,97073.77
2022-08-20T23:26:31.376Z,97078.35
2022-08-20T23:28:59.193Z,97080.59
2022-08-20T23:31:26.916Z,97089.19
2022-08-20T23:33:54.627Z,97091.00
2022-08-20T23:36:23.867Z,97090.13
2022-08-20T23:38:52.861Z,97088.27
2022-08-20T23:41:21.171Z,97086.44
2022-08-20T23:43:49.109Z,97081.20
2022-08-20T23:46:17.988Z,97075.36
2022-08-20T23:48:45.754Z,97075.08
2022-08-20T23:51:13.534Z,97073.64
2022-08-20T23:53:41.399Z,97083.32
2022-08-20T23:56:09.265Z,97087.74
2022-08-20T23:58:37.199Z,97092.07
